Jolly Acres, South Dakota
Current Conditions -  °F | °C
As of 7:52 PM on Wednesday 26 Nov 2014 (Local Time) from KRAP Reporting Station
Light Snow Light Snow  
Wind Chill: 28°   Ceiling: 2200
Heat Index: 28°   Visibility: 5mi
Dew Point: 25°   Wind: 3mph
Humidity: 88%   Direction: 90°E
Pressure: 30.27"   Gusts: NA
Location:  44.0731°N, 103.205°W
Report Text: KRAP 270252Z 09003KT 5SM -SN BR BKN022 OVC035 M02/M04 A3027 RMK AO2 SLP293 P0000 60000 T10221039 58000
Loading
Personal Weather Stations






























Interactive Weather Map New forecast layout! Learn more

10-Day Weather Forecast

Advertisements
Track Severe Weather on mobile